Time;durP1;ratioP1;P1;durP2;ratioP2;P2;SDS_P1;SDS_P2;PMS_P1;PMS_P2;Temp;Humidity;BMP_temperature;BMP_pressure;BME280_temperature;BME280_humidity;BME280_pressure;Samples;Min_cycle;Max_cycle;Signal;HPM_P1;HPM_P2
2022/08/20 00:00:16;;;;;;;18.27;12.70;;;19.40;99.90;;;;;;5104266;28;20107;-65
2022/08/20 00:02:51;;;;;;;19.50;13.33;;;19.30;99.90;;;;;;5103852;28;20051;-65
2022/08/20 00:05:23;;;;;;;19.63;12.85;;;19.30;99.90;;;;;;5105006;28;20051;-65
2022/08/20 00:07:49;;;;;;;21.02;13.98;;;19.30;99.90;;;;;;5103776;28;20429;-65
2022/08/20 00:10:15;;;;;;;19.88;13.93;;;19.30;99.90;;;;;;5102486;28;20111;-65
2022/08/20 00:12:46;;;;;;;17.45;12.63;;;19.30;99.90;;;;;;5103347;28;20036;-65
2022/08/20 00:15:13;;;;;;;16.33;12.02;;;19.30;99.90;;;;;;5078978;28;20047;-65
2022/08/20 00:17:39;;;;;;;21.20;13.63;;;19.30;99.90;;;;;;5103673;28;20043;-65
2022/08/20 00:20:08;;;;;;;16.42;13.30;;;19.30;99.90;;;;;;5102920;28;20052;-65
2022/08/20 00:22:34;;;;;;;17.80;13.30;;;19.30;99.90;;;;;;5102260;28;20044;-65
2022/08/20 00:25:02;;;;;;;18.17;12.80;;;19.20;99.90;;;;;;5103136;28;20090;-65
2022/08/20 00:27:28;;;;;;;19.30;12.32;;;19.20;99.90;;;;;;5103579;28;20097;-65
2022/08/20 00:29:53;;;;;;;21.58;13.10;;;19.20;99.90;;;;;;5099008;28;20080;-65
2022/08/20 00:32:19;;;;;;;19.15;12.13;;;19.10;99.90;;;;;;5101616;28;20050;-65
2022/08/20 00:34:45;;;;;;;20.48;12.43;;;19.10;99.90;;;;;;5103748;28;20078;-65
2022/08/20 00:37:11;;;;;;;16.55;11.48;;;19.00;99.90;;;;;;5078795;28;20096;-65
2022/08/20 00:39:37;;;;;;;19.75;12.10;;;19.00;99.90;;;;;;5097061;28;20070;-65
2022/08/20 00:42:03;;;;;;;20.83;12.25;;;19.00;99.90;;;;;;5102778;28;20127;-65
2022/08/20 00:44:29;;;;;;;14.32;10.43;;;18.80;99.90;;;;;;5103475;28;20131;-65
2022/08/20 00:46:55;;;;;;;16.88;11.80;;;18.80;99.90;;;;;;5101979;28;20055;-65
2022/08/20 00:49:27;;;;;;;18.83;11.75;;;18.80;99.90;;;;;;5102948;28;20500;-65
2022/08/20 00:51:56;;;;;;;17.50;11.20;;;18.70;99.90;;;;;;5102334;28;20044;-65
2022/08/20 00:54:35;;;;;;;19.02;12.18;;;18.70;99.90;;;;;;5101900;28;20503;-65
2022/08/20 00:57:05;;;;;;;19.83;12.03;;;18.60;99.90;;;;;;5103211;28;20048;-65
2022/08/20 00:59:33;;;;;;;17.50;11.80;;;18.70;99.90;;;;;;5101740;28;20274;-65
2022/08/20 01:02:01;;;;;;;24.17;12.32;;;18.60;99.90;;;;;;5103894;28;20058;-65
2022/08/20 01:04:32;;;;;;;19.73;11.75;;;18.70;99.90;;;;;;5105861;28;20047;-65
2022/08/20 01:06:59;;;;;;;19.98;13.32;;;18.60;99.90;;;;;;5101137;28;20055;-65
2022/08/20 01:09:26;;;;;;;19.63;12.77;;;18.60;99.90;;;;;;5101089;28;20109;-65
2022/08/20 01:11:53;;;;;;;20.00;12.18;;;18.70;99.90;;;;;;5098964;28;20089;-65
2022/08/20 01:16:55;;;;;;;20.58;12.02;;;18.60;99.90;;;;;;5105204;28;20075;-65
2022/08/20 01:19:28;;;;;;;25.08;12.35;;;18.60;99.90;;;;;;5102770;28;20051;-65
2022/08/20 01:21:54;;;;;;;22.95;11.23;;;18.60;99.90;;;;;;5105503;28;20047;-65
2022/08/20 01:24:35;;;;;;;22.25;11.60;;;18.60;99.90;;;;;;5105497;28;20052;-65
2022/08/20 01:27:03;;;;;;;22.08;12.25;;;18.50;99.90;;;;;;5102950;28;20048;-65
2022/08/20 01:29:36;;;;;;;23.25;12.35;;;18.60;99.90;;;;;;5108111;28;20087;-65
2022/08/20 01:32:02;;;;;;;21.15;12.23;;;18.50;99.90;;;;;;5105106;28;20048;-65
2022/08/20 01:34:28;;;;;;;19.40;12.18;;;18.40;99.90;;;;;;5106557;28;20040;-65
2022/08/20 01:36:56;;;;;;;24.40;12.65;;;18.40;99.90;;;;;;5104420;28;20055;-65
2022/08/20 01:39:31;;;;;;;22.20;12.40;;;18.40;99.90;;;;;;5104525;28;20052;-65
2022/08/20 01:42:08;;;;;;;22.20;11.77;;;18.50;99.90;;;;;;5105691;28;20074;-65
2022/08/20 01:44:38;;;;;;;25.60;11.88;;;18.40;99.90;;;;;;5104628;28;20062;-65
2022/08/20 01:47:34;;;;;;;17.02;11.30;;;18.40;99.90;;;;;;5104411;28;20042;-65
2022/08/20 01:50:16;;;;;;;26.42;12.50;;;18.50;99.90;;;;;;5093351;28;20052;-65
2022/08/20 01:52:48;;;;;;;25.42;12.10;;;18.40;99.90;;;;;;5106355;28;20051;-65
2022/08/20 01:55:14;;;;;;;21.33;11.95;;;18.40;99.90;;;;;;5103590;28;20522;-65
2022/08/20 01:57:40;;;;;;;20.83;11.15;;;18.40;99.90;;;;;;5106922;28;20043;-65
2022/08/20 02:00:13;;;;;;;21.77;12.35;;;18.40;99.90;;;;;;5105155;28;20131;-65
2022/08/20 02:02:39;;;;;;;22.27;11.43;;;18.30;99.90;;;;;;5100818;28;20040;-65
2022/08/20 02:05:05;;;;;;;22.75;11.80;;;18.30;99.90;;;;;;5106084;28;20052;-65
2022/08/20 02:07:31;;;;;;;21.08;11.48;;;18.20;99.90;;;;;;5103766;28;20055;-65
2022/08/20 02:09:58;;;;;;;22.92;12.30;;;18.40;99.90;;;;;;5105663;28;20044;-65
2022/08/20 02:12:24;;;;;;;21.35;12.07;;;18.30;99.90;;;;;;5087911;28;20109;-65
2022/08/20 02:14:52;;;;;;;19.05;12.20;;;18.20;99.90;;;;;;5104903;28;20573;-65
2022/08/20 02:17:21;;;;;;;20.35;11.48;;;18.20;99.90;;;;;;5104219;28;20072;-65
2022/08/20 02:20:01;;;;;;;24.50;11.10;;;18.10;99.90;;;;;;5119599;28;20108;-65
2022/08/20 02:22:34;;;;;;;17.23;10.70;;;18.10;99.90;;;;;;5104660;28;20048;-65
2022/08/20 02:25:01;;;;;;;17.20;10.68;;;18.10;99.90;;;;;;5106242;28;20132;-65
2022/08/20 02:27:26;;;;;;;20.45;11.40;;;18.10;99.90;;;;;;5099690;28;20055;-65
2022/08/20 02:29:52;;;;;;;19.25;11.50;;;18.10;99.90;;;;;;5105829;28;20047;-65
2022/08/20 02:32:18;;;;;;;21.33;11.13;;;18.10;99.90;;;;;;5104453;28;20048;-65
2022/08/20 02:34:44;;;;;;;18.80;10.20;;;18.00;99.90;;;;;;5104049;28;20048;-65
2022/08/20 02:37:17;;;;;;;22.30;11.02;;;18.00;99.90;;;;;;5104036;28;20103;-65
2022/08/20 02:39:44;;;;;;;24.73;11.32;;;18.00;99.90;;;;;;5103837;28;20063;-65
2022/08/20 02:42:11;;;;;;;20.75;10.05;;;18.00;99.90;;;;;;5103064;28;20628;-65
2022/08/20 02:44:38;;;;;;;19.55;9.75;;;17.90;99.90;;;;;;5103942;28;20044;-65
2022/08/20 02:47:05;;;;;;;19.98;10.07;;;17.90;99.90;;;;;;5103395;28;20079;-65
2022/08/20 02:49:31;;;;;;;18.65;9.90;;;17.90;99.90;;;;;;5104166;28;20036;-65
2022/08/20 02:51:57;;;;;;;21.20;10.07;;;17.80;99.90;;;;;;5104876;28;20113;-65
2022/08/20 02:54:23;;;;;;;22.50;9.55;;;17.80;99.90;;;;;;5104071;28;20525;-65
2022/08/20 02:56:50;;;;;;;14.52;8.25;;;17.80;99.90;;;;;;5103766;28;20052;-65
2022/08/20 02:59:17;;;;;;;21.77;9.50;;;17.80;99.90;;;;;;5103094;28;20040;-65
2022/08/20 03:01:43;;;;;;;17.58;10.13;;;17.80;99.90;;;;;;5103635;28;20055;-65
2022/08/20 03:04:08;;;;;;;18.33;9.93;;;17.70;99.90;;;;;;5100962;28;20484;-65
2022/08/20 03:06:34;;;;;;;18.63;10.32;;;17.70;99.90;;;;;;5105779;28;20086;-65
2022/08/20 03:09:01;;;;;;;18.35;9.25;;;17.70;99.90;;;;;;5104352;28;20040;-65
2022/08/20 03:11:27;;;;;;;15.35;8.98;;;17.70;99.90;;;;;;5096522;28;20104;-65
2022/08/20 03:13:52;;;;;;;20.35;9.50;;;17.60;99.90;;;;;;5104424;28;20052;-65
2022/08/20 03:16:18;;;;;;;20.85;9.00;;;17.60;99.90;;;;;;5103147;28;20089;-65
2022/08/20 03:18:45;;;;;;;17.30;9.80;;;17.60;99.90;;;;;;5105538;28;20048;-65
2022/08/20 03:21:11;;;;;;;21.00;8.80;;;17.60;99.90;;;;;;5103036;28;20044;-65
2022/08/20 03:23:38;;;;;;;17.73;9.45;;;17.60;99.90;;;;;;5104662;28;20047;-65
2022/08/20 03:26:06;;;;;;;16.17;9.30;;;17.50;99.90;;;;;;5103590;28;20067;-65
2022/08/20 03:28:32;;;;;;;17.73;9.18;;;17.50;99.90;;;;;;5086604;28;20048;-65
2022/08/20 03:30:58;;;;;;;16.50;9.38;;;17.50;99.90;;;;;;5105849;28;20047;-65
2022/08/20 03:33:25;;;;;;;18.15;9.38;;;17.50;99.90;;;;;;5104127;28;20070;-65
2022/08/20 03:35:51;;;;;;;16.73;8.90;;;17.40;99.90;;;;;;5097867;28;20056;-65
2022/08/20 03:38:19;;;;;;;16.90;8.93;;;17.50;99.90;;;;;;5103396;28;20412;-65
2022/08/20 03:40:45;;;;;;;16.23;8.48;;;17.40;99.90;;;;;;5100253;28;20082;-65
2022/08/20 03:43:11;;;;;;;15.55;7.97;;;17.40;99.90;;;;;;5098414;28;20040;-65
2022/08/20 03:45:39;;;;;;;14.15;8.23;;;17.40;99.90;;;;;;5103922;28;20110;-65
2022/08/20 03:48:07;;;;;;;12.27;8.32;;;17.40;99.90;;;;;;5097746;28;20051;-65
2022/08/20 03:50:34;;;;;;;12.60;8.57;;;17.40;99.90;;;;;;5102302;28;20055;-65
2022/08/20 03:53:00;;;;;;;20.23;9.02;;;17.40;99.90;;;;;;5103737;28;20036;-65
2022/08/20 03:55:28;;;;;;;16.63;9.07;;;17.40;99.90;;;;;;5102485;28;20044;-65
2022/08/20 03:58:01;;;;;;;14.65;9.00;;;17.30;99.90;;;;;;5105086;28;20511;-65
2022/08/20 04:00:49;;;;;;;17.77;8.82;;;17.30;99.90;;;;;;5102784;28;20078;-65
2022/08/20 04:03:16;;;;;;;16.95;8.52;;;17.40;99.90;;;;;;5102243;28;20123;-65
2022/08/20 04:05:42;;;;;;;15.90;7.90;;;17.40;99.90;;;;;;5103814;28;20488;-65
2022/08/20 04:08:11;;;;;;;20.67;8.82;;;17.30;99.90;;;;;;5102145;28;20089;-65
2022/08/20 04:10:38;;;;;;;14.25;8.43;;;17.20;99.90;;;;;;5100803;28;20044;-65
2022/08/20 04:13:05;;;;;;;17.13;8.35;;;17.20;99.90;;;;;;5105019;28;20048;-65
2022/08/20 04:15:33;;;;;;;15.85;7.57;;;17.20;99.90;;;;;;5105012;28;20398;-65
2022/08/20 04:17:59;;;;;;;12.02;7.13;;;17.20;99.90;;;;;;5100975;28;20048;-65
2022/08/20 04:20:26;;;;;;;17.05;7.18;;;17.20;99.90;;;;;;5098487;28;20052;-65
2022/08/20 04:22:54;;;;;;;14.57;6.93;;;17.20;99.90;;;;;;5103756;28;20137;-65
2022/08/20 04:25:20;;;;;;;14.20;6.93;;;17.20;99.90;;;;;;5102505;28;20040;-65
2022/08/20 04:27:49;;;;;;;20.88;7.53;;;17.20;99.90;;;;;;5104196;28;20491;-65
2022/08/20 04:30:17;;;;;;;16.63;6.97;;;17.20;99.90;;;;;;5104562;28;20042;-65
2022/08/20 04:32:44;;;;;;;15.27;6.35;;;17.10;99.90;;;;;;5103519;28;20044;-65
2022/08/20 04:35:14;;;;;;;15.23;7.15;;;17.00;99.90;;;;;;5097963;28;20064;-65
2022/08/20 04:37:41;;;;;;;14.45;6.35;;;17.00;99.90;;;;;;5106792;28;20406;-65
2022/08/20 04:42:56;;;;;;;16.10;6.50;;;17.00;99.90;;;;;;5106472;28;20479;-65
2022/08/20 04:45:23;;;;;;;13.05;6.10;;;17.00;99.90;;;;;;5106023;28;20140;-65
2022/08/20 04:47:49;;;;;;;14.07;6.68;;;17.00;99.90;;;;;;5105434;28;20052;-65
2022/08/20 04:50:17;;;;;;;13.80;6.10;;;16.90;99.90;;;;;;5106944;28;20044;-65
2022/08/20 04:52:43;;;;;;;16.67;5.80;;;17.00;99.90;;;;;;5108683;28;20051;-65
2022/08/20 04:55:10;;;;;;;17.33;5.50;;;17.00;99.90;;;;;;5108219;28;20044;-65
2022/08/20 04:57:37;;;;;;;19.48;6.05;;;17.00;99.90;;;;;;5105745;28;20059;-65
2022/08/20 05:00:11;;;;;;;13.07;5.75;;;17.00;99.90;;;;;;5105722;28;20549;-65
2022/08/20 05:02:37;;;;;;;11.77;6.00;;;17.10;99.90;;;;;;5107293;28;20090;-65
2022/08/20 05:05:07;;;;;;;13.38;5.57;;;17.00;99.90;;;;;;5107014;28;20036;-65
2022/08/20 05:07:44;;;;;;;12.88;6.85;;;17.00;99.90;;;;;;5095153;28;20032;-65
2022/08/20 05:10:12;;;;;;;12.85;5.15;;;17.00;99.90;;;;;;5103622;28;20054;-65
2022/08/20 05:12:40;;;;;;;11.25;5.15;;;17.10;99.90;;;;;;5106060;28;20052;-65
2022/08/20 05:15:06;;;;;;;16.05;5.55;;;17.00;99.90;;;;;;5105696;28;20067;-65
2022/08/20 05:17:32;;;;;;;14.80;4.95;;;17.00;99.90;;;;;;5105242;28;20050;-65
2022/08/20 05:19:59;;;;;;;13.93;4.95;;;17.00;99.90;;;;;;5107393;28;20095;-65
2022/08/20 05:22:26;;;;;;;11.65;4.97;;;16.90;99.90;;;;;;5105664;28;20048;-65
2022/08/20 05:24:52;;;;;;;15.05;5.18;;;16.90;99.90;;;;;;5104570;28;20480;-65
2022/08/20 05:27:18;;;;;;;12.80;5.05;;;16.90;99.90;;;;;;5106981;28;20477;-64
2022/08/20 05:29:44;;;;;;;12.18;5.97;;;16.90;99.90;;;;;;5105389;28;20392;-66
2022/08/20 05:32:11;;;;;;;13.55;5.15;;;16.80;99.90;;;;;;5106766;28;20060;-65
2022/08/20 05:34:37;;;;;;;11.60;5.57;;;16.80;99.90;;;;;;5105456;28;20044;-65
2022/08/20 05:37:03;;;;;;;14.23;5.45;;;16.80;99.90;;;;;;5122332;28;20051;-66
2022/08/20 05:39:29;;;;;;;11.40;4.78;;;16.70;99.90;;;;;;5105127;28;20044;-64
2022/08/20 05:41:55;;;;;;;13.80;5.32;;;16.70;99.90;;;;;;5103583;28;20048;-64
2022/08/20 05:44:22;;;;;;;16.92;5.25;;;16.70;99.90;;;;;;5106570;28;20055;-64
2022/08/20 05:46:47;;;;;;;12.07;5.20;;;16.70;99.90;;;;;;5099457;28;20044;-65
2022/08/20 05:49:17;;;;;;;13.80;5.18;;;16.70;99.90;;;;;;5102441;28;20122;-65
2022/08/20 05:51:43;;;;;;;;;;;16.70;99.90;;;;;;5098434;28;20131;-65
2022/08/20 05:54:09;;;;;;;16.63;5.25;;;16.70;99.90;;;;;;5100505;28;19919;-65
2022/08/20 05:56:35;;;;;;;14.70;5.28;;;16.70;99.90;;;;;;5106246;28;20036;-68
2022/08/20 05:59:03;;;;;;;13.85;5.65;;;16.80;99.90;;;;;;5104775;28;20048;-65
2022/08/20 06:01:30;;;;;;;13.35;5.40;;;16.80;99.90;;;;;;5104374;28;20056;-65
2022/08/20 06:06:40;;;;;;;11.70;5.35;;;16.80;99.90;;;;;;5104648;28;20510;-66
2022/08/20 06:09:05;;;;;;;13.95;5.78;;;16.70;99.90;;;;;;5106215;28;20044;-65
2022/08/20 06:11:32;;;;;;;12.07;5.07;;;16.70;99.90;;;;;;5105525;28;20073;-66
2022/08/20 06:13:58;;;;;;;13.05;5.72;;;16.80;99.90;;;;;;5105731;28;20464;-67
2022/08/20 06:16:25;;;;;;;17.13;5.85;;;16.90;99.90;;;;;;5104195;28;20079;-65
2022/08/20 06:18:50;;;;;;;12.25;5.00;;;17.00;99.90;;;;;;5093616;28;20108;-69
2022/08/20 06:21:16;;;;;;;14.40;5.45;;;17.00;99.90;;;;;;5103486;28;20052;-63
2022/08/20 06:23:42;;;;;;;11.60;5.45;;;17.00;99.90;;;;;;5106422;28;20100;-64
2022/08/20 06:26:08;;;;;;;17.05;5.97;;;17.10;99.90;;;;;;5104544;28;20047;-64
2022/08/20 06:28:34;;;;;;;12.48;5.38;;;17.10;99.90;;;;;;5103323;28;20075;-65
2022/08/20 06:31:01;;;;;;;15.43;5.57;;;17.10;99.90;;;;;;5105179;28;20048;-63
2022/08/20 06:33:26;;;;;;;16.08;5.60;;;17.20;99.90;;;;;;5101432;28;20040;-63
2022/08/20 06:35:53;;;;;;;15.65;4.80;;;17.20;99.90;;;;;;5106037;28;20040;-63
2022/08/20 06:38:19;;;;;;;12.40;4.85;;;17.30;99.90;;;;;;5101653;28;20138;-63
2022/08/20 06:40:45;;;;;;;11.50;5.28;;;17.30;99.90;;;;;;5099059;28;20412;-63
2022/08/20 06:43:10;;;;;;;12.90;4.63;;;17.20;99.90;;;;;;5087407;28;20044;-63
2022/08/20 06:45:37;;;;;;;14.40;3.50;;;17.30;99.90;;;;;;5105877;28;20454;-63
2022/08/20 06:48:07;;;;;;;12.45;4.03;;;17.30;99.90;;;;;;5104910;28;20044;-63
2022/08/20 06:50:38;;;;;;;13.15;4.38;;;17.30;99.90;;;;;;5104999;28;20080;-63
2022/08/20 06:53:05;;;;;;;11.27;4.25;;;17.30;99.90;;;;;;5104268;28;20036;-63
2022/08/20 06:55:32;;;;;;;12.75;3.90;;;17.40;99.90;;;;;;5103603;28;20055;-63
2022/08/20 06:57:59;;;;;;;13.05;3.38;;;17.50;99.90;;;;;;5104477;28;20089;-63
2022/08/20 07:00:25;;;;;;;9.10;4.00;;;17.50;99.90;;;;;;5086190;28;20051;-63
2022/08/20 07:02:51;;;;;;;10.48;4.00;;;17.60;99.90;;;;;;5100299;28;20051;-63
2022/08/20 07:05:16;;;;;;;11.05;3.42;;;17.70;99.90;;;;;;5102859;28;20044;-63
2022/08/20 07:07:48;;;;;;;9.45;3.38;;;17.80;99.90;;;;;;5100499;28;20385;-63
2022/08/20 07:10:15;;;;;;;11.77;3.40;;;17.90;99.90;;;;;;5105688;28;20040;-63
2022/08/20 07:12:41;;;;;;;12.85;4.07;;;18.00;99.90;;;;;;5104472;28;20078;-63
2022/08/20 07:15:09;;;;;;;11.13;3.35;;;18.00;99.90;;;;;;5096530;28;20040;-63
2022/08/20 07:17:35;;;;;;;11.20;3.75;;;18.10;99.90;;;;;;5105061;28;20040;-63
2022/08/20 07:20:12;;;;;;;11.95;2.83;;;18.10;99.90;;;;;;5103778;28;20040;-63
2022/08/20 07:22:38;;;;;;;14.27;3.70;;;18.10;99.90;;;;;;5102982;28;20048;-63
2022/08/20 07:25:06;;;;;;;9.20;2.90;;;18.10;99.90;;;;;;5103093;28;20044;-63
2022/08/20 07:27:32;;;;;;;10.90;2.97;;;18.10;99.90;;;;;;5104361;28;20043;-63
2022/08/20 07:32:44;;;;;;;12.55;3.10;;;18.00;99.90;;;;;;5095718;28;20047;-63
2022/08/20 07:35:13;;;;;;;10.85;3.08;;;18.00;99.90;;;;;;5104281;28;20101;-63
2022/08/20 07:37:45;;;;;;;14.23;3.40;;;18.10;99.90;;;;;;5102798;28;20504;-63
2022/08/20 07:40:18;;;;;;;10.32;3.03;;;18.10;99.90;;;;;;5102387;28;20040;-63
2022/08/20 07:42:44;;;;;;;12.63;2.20;;;18.20;99.90;;;;;;5103077;28;20048;-63
2022/08/20 07:45:12;;;;;;;9.48;2.28;;;18.20;99.90;;;;;;5103998;28;20059;-63
2022/08/20 07:47:40;;;;;;;12.27;3.22;;;18.30;99.90;;;;;;5091920;28;20037;-64
2022/08/20 07:50:07;;;;;;;8.57;2.63;;;18.30;99.90;;;;;;5103207;28;20067;-63
2022/08/20 07:52:36;;;;;;;8.93;2.40;;;18.40;99.90;;;;;;5102756;28;20105;-63
2022/08/20 07:55:05;;;;;;;12.80;2.38;;;18.40;99.90;;;;;;5105576;28;20039;-63
2022/08/20 07:57:30;;;;;;;12.38;2.38;;;18.50;99.90;;;;;;5103617;28;20062;-63
2022/08/20 07:59:57;;;;;;;11.95;2.95;;;18.50;99.90;;;;;;5103446;28;20059;-63
2022/08/20 08:02:24;;;;;;;7.15;2.40;;;18.50;99.90;;;;;;5102409;28;20491;-63
2022/08/20 08:04:50;;;;;;;7.15;2.17;;;18.50;99.90;;;;;;5105078;28;20065;-63
2022/08/20 08:07:16;;;;;;;11.18;2.05;;;18.50;99.90;;;;;;5101023;28;20036;-63
2022/08/20 08:09:43;;;;;;;9.35;2.22;;;18.60;99.90;;;;;;5103483;28;20040;-63
2022/08/20 08:12:12;;;;;;;7.32;1.90;;;18.60;99.90;;;;;;5101463;28;20052;-63
2022/08/20 08:14:38;;;;;;;10.02;2.35;;;18.60;99.90;;;;;;5102954;28;20097;-63
2022/08/20 08:17:05;;;;;;;8.68;1.83;;;18.60;99.90;;;;;;5105224;28;20051;-63
2022/08/20 08:19:38;;;;;;;7.00;1.95;;;18.70;99.90;;;;;;5102297;28;20040;-64
2022/08/20 08:22:06;;;;;;;8.32;2.10;;;18.60;99.90;;;;;;5098015;28;20063;-64
2022/08/20 08:24:32;;;;;;;5.55;1.90;;;18.70;99.90;;;;;;5103263;28;20039;-63
2022/08/20 08:26:58;;;;;;;9.48;1.90;;;18.80;99.90;;;;;;5103939;28;20048;-63
2022/08/20 08:29:25;;;;;;;7.85;2.03;;;18.80;99.90;;;;;;5103112;28;20047;-63
2022/08/20 08:31:50;;;;;;;7.68;1.65;;;18.90;99.90;;;;;;5103653;28;20060;-63
2022/08/20 08:34:16;;;;;;;6.28;1.40;;;19.00;99.90;;;;;;5102521;28;20117;-64
2022/08/20 08:36:43;;;;;;;5.65;1.85;;;19.10;99.90;;;;;;5103496;28;20060;-63
2022/08/20 08:39:09;;;;;;;8.15;1.63;;;19.10;99.90;;;;;;5102120;28;20040;-63
2022/08/20 08:41:48;;;;;;;7.97;2.00;;;19.10;99.90;;;;;;5099391;28;20052;-64
2022/08/20 08:44:26;;;;;;;12.02;1.88;;;19.20;99.90;;;;;;5101594;28;20043;-63
2022/08/20 08:47:17;;;;;;;7.38;1.83;;;19.30;99.90;;;;;;5101854;28;20047;-64
2022/08/20 08:49:44;;;;;;;7.25;1.60;;;19.40;99.90;;;;;;5102087;28;20041;-63
2022/08/20 08:52:21;;;;;;;8.27;1.90;;;19.40;99.90;;;;;;5101879;28;20526;-64
2022/08/20 08:54:50;;;;;;;12.80;2.35;;;19.40;99.90;;;;;;5102554;28;20388;-64
2022/08/20 08:57:16;;;;;;;5.38;1.50;;;19.50;99.90;;;;;;5103221;28;20047;-63
2022/08/20 08:59:44;;;;;;;10.52;2.17;;;19.50;99.90;;;;;;5103738;28;20036;-63
2022/08/20 09:02:18;;;;;;;6.18;1.30;;;19.70;99.90;;;;;;5102090;28;20076;-63
2022/08/20 09:04:44;;;;;;;3.92;1.15;;;19.70;99.90;;;;;;5103512;28;20040;-63
2022/08/20 09:07:15;;;;;;;7.35;1.65;;;19.70;99.90;;;;;;5101969;28;20074;-64
2022/08/20 09:09:45;;;;;;;4.80;1.65;;;19.70;99.90;;;;;;5101874;28;20083;-64
2022/08/20 09:12:13;;;;;;;4.70;1.40;;;19.80;99.90;;;;;;5103117;28;20043;-63
2022/08/20 09:14:40;;;;;;;9.07;1.63;;;19.80;99.90;;;;;;5102438;28;20095;-64
2022/08/20 09:17:06;;;;;;;4.85;1.15;;;20.00;99.90;;;;;;5101632;28;20113;-64
2022/08/20 09:19:32;;;;;;;11.70;1.30;;;20.00;99.90;;;;;;5103289;28;20052;-63
2022/08/20 09:21:58;;;;;;;5.97;1.20;;;20.10;99.90;;;;;;5103124;28;20039;-63
2022/08/20 09:24:24;;;;;;;6.47;1.73;;;20.10;99.90;;;;;;5105620;28;20055;-64
2022/08/20 09:26:50;;;;;;;6.43;1.10;;;20.20;99.90;;;;;;5105528;28;20040;-63
2022/08/20 09:29:16;;;;;;;6.63;1.33;;;20.20;99.90;;;;;;5105507;28;20415;-64
2022/08/20 09:31:41;;;;;;;8.55;1.60;;;20.30;99.90;;;;;;5105494;28;20047;-64
2022/08/20 09:34:07;;;;;;;6.90;1.30;;;20.30;99.90;;;;;;5106567;28;20044;-64
2022/08/20 09:36:34;;;;;;;5.35;1.23;;;20.30;99.90;;;;;;5106369;28;20079;-64
2022/08/20 09:39:00;;;;;;;5.28;1.67;;;20.40;99.90;;;;;;5104283;28;20047;-64
2022/08/20 09:41:25;;;;;;;5.30;1.55;;;20.40;99.90;;;;;;5106676;28;20075;-63
2022/08/20 09:43:51;;;;;;;6.57;1.20;;;20.40;99.90;;;;;;5106705;28;20036;-64
2022/08/20 09:46:17;;;;;;;5.97;1.80;;;20.50;99.90;;;;;;5105945;28;20032;-63
2022/08/20 09:48:42;;;;;;;7.20;1.55;;;20.60;99.90;;;;;;5103707;28;20087;-63
2022/08/20 09:51:08;;;;;;;7.80;1.55;;;20.60;99.90;;;;;;5106855;28;20047;-63
2022/08/20 09:53:34;;;;;;;3.05;1.17;;;20.70;99.90;;;;;;5105950;28;20040;-63
2022/08/20 09:56:00;;;;;;;8.02;1.55;;;20.80;99.90;;;;;;5104994;28;20097;-64
2022/08/20 09:58:48;;;;;;;8.05;1.55;;;20.80;99.90;;;;;;5107670;28;20055;-63
2022/08/20 10:01:17;;;;;;;6.55;1.50;;;20.80;99.90;;;;;;5107572;28;20036;-64
2022/08/20 10:03:46;;;;;;;8.60;1.85;;;20.80;99.90;;;;;;5105426;28;20408;-64
2022/08/20 10:06:13;;;;;;;;;;;21.00;99.90;;;;;;5106415;28;20450;-63
2022/08/20 10:08:39;;;;;;;6.15;2.28;;;21.10;99.90;;;;;;5106492;28;19920;-64
2022/08/20 10:11:05;;;;;;;16.38;2.40;;;21.20;99.90;;;;;;5104573;28;20084;-64
2022/08/20 10:13:31;;;;;;;8.80;1.30;;;21.30;99.90;;;;;;5105647;28;20097;-63
2022/08/20 10:15:57;;;;;;;5.93;1.25;;;21.30;99.90;;;;;;5104320;28;20032;-63
2022/08/20 10:18:22;;;;;;;6.65;1.42;;;21.40;99.90;;;;;;5103331;28;20044;-64
2022/08/20 10:20:48;;;;;;;6.75;1.75;;;21.40;99.90;;;;;;5104699;28;20036;-64
2022/08/20 10:23:14;;;;;;;5.20;1.50;;;21.40;99.90;;;;;;5106767;28;20040;-64
2022/08/20 10:25:41;;;;;;;5.85;1.65;;;21.40;99.90;;;;;;5105624;28;20044;-63
2022/08/20 10:28:07;;;;;;;6.25;1.50;;;21.50;99.90;;;;;;5106380;28;20032;-63
2022/08/20 10:30:33;;;;;;;9.00;1.60;;;21.70;99.90;;;;;;5106339;28;20515;-63
2022/08/20 10:32:59;;;;;;;4.90;1.40;;;21.70;99.90;;;;;;5107118;28;20348;-63
2022/08/20 10:35:25;;;;;;;5.47;1.52;;;21.80;99.90;;;;;;5104281;28;20064;-63
2022/08/20 10:37:51;;;;;;;8.20;1.90;;;21.90;99.90;;;;;;5098320;28;20096;-64
2022/08/20 10:40:16;;;;;;;4.30;1.30;;;21.90;99.90;;;;;;5104893;28;20044;-64
2022/08/20 10:42:43;;;;;;;6.60;1.58;;;22.10;99.90;;;;;;5104323;28;20048;-63
2022/08/20 10:45:10;;;;;;;10.85;2.42;;;22.20;99.90;;;;;;5104573;28;20082;-64
2022/08/20 10:47:36;;;;;;;7.78;1.77;;;22.20;99.90;;;;;;5103025;28;20059;-63
2022/08/20 10:50:05;;;;;;;9.40;1.60;;;22.30;99.90;;;;;;5105826;28;20111;-64
2022/08/20 10:52:30;;;;;;;7.88;1.70;;;22.40;99.90;;;;;;5104676;28;20059;-64
2022/08/20 10:54:56;;;;;;;4.05;1.70;;;22.30;99.90;;;;;;5104708;28;20051;-64
2022/08/20 10:57:28;;;;;;;5.88;1.40;;;22.40;99.90;;;;;;5106319;28;20076;-64
2022/08/20 10:59:56;;;;;;;5.00;1.23;;;22.30;99.90;;;;;;5098376;28;20047;-64
2022/08/20 11:02:22;;;;;;;7.30;1.95;;;22.40;99.90;;;;;;5106263;28;20048;-63
2022/08/20 11:04:49;;;;;;;7.60;1.85;;;22.40;99.90;;;;;;5103143;28;20509;-64
2022/08/20 11:07:22;;;;;;;6.00;2.25;;;22.30;99.90;;;;;;5103709;28;20496;-64
2022/08/20 11:09:49;;;;;;;5.15;1.50;;;22.20;99.90;;;;;;5104191;28;20131;-64
2022/08/20 11:12:17;;;;;;;7.00;1.40;;;22.10;99.90;;;;;;5103281;28;20051;-64
2022/08/20 11:14:43;;;;;;;6.18;1.77;;;22.20;99.90;;;;;;5096129;28;20617;-64
2022/08/20 11:17:08;;;;;;;7.20;1.52;;;22.30;99.90;;;;;;5104629;28;20087;-64
2022/08/20 11:19:42;;;;;;;7.30;1.40;;;22.40;99.90;;;;;;5101788;28;20086;-64
2022/08/20 11:22:09;;;;;;;6.50;1.48;;;22.70;99.90;;;;;;5103906;28;20092;-64
2022/08/20 11:24:36;;;;;;;5.95;1.65;;;22.90;99.90;;;;;;5104352;28;20044;-63
2022/08/20 11:27:03;;;;;;;4.18;1.42;;;23.00;99.90;;;;;;5103009;28;20047;-63
2022/08/20 11:29:28;;;;;;;7.55;1.50;;;23.10;99.20;;;;;;5103001;28;20090;-63
2022/08/20 11:31:54;;;;;;;7.03;1.75;;;23.10;99.40;;;;;;5102677;28;20044;-63
2022/08/20 11:34:20;;;;;;;6.25;1.80;;;23.10;99.90;;;;;;5103028;28;20063;-64
2022/08/20 11:36:47;;;;;;;7.00;1.50;;;23.00;98.50;;;;;;5103042;28;20048;-64
2022/08/20 11:39:14;;;;;;;5.72;1.70;;;22.90;99.20;;;;;;5103872;28;20044;-64
2022/08/20 11:41:40;;;;;;;4.97;1.23;;;22.90;98.90;;;;;;5105115;28;20067;-64
2022/08/20 11:44:06;;;;;;;7.07;1.90;;;22.80;98.70;;;;;;5103105;28;20569;-64
2022/08/20 11:46:32;;;;;;;4.53;1.52;;;22.80;99.20;;;;;;5101976;28;20052;-64
2022/08/20 11:48:58;;;;;;;8.55;2.45;;;22.70;99.70;;;;;;5103397;28;20052;-63
2022/08/20 11:51:24;;;;;;;6.30;1.77;;;22.80;99.40;;;;;;5104034;28;20052;-64
2022/08/20 11:53:50;;;;;;;5.32;1.63;;;22.70;99.30;;;;;;5103966;28;20127;-63
2022/08/20 11:56:17;;;;;;;5.70;2.47;;;22.60;99.00;;;;;;5102452;28;20601;-63
2022/08/20 11:58:43;;;;;;;6.50;1.95;;;22.50;99.40;;;;;;5104044;28;20089;-63
2022/08/20 12:01:09;;;;;;;5.25;1.70;;;22.50;99.60;;;;;;5102780;28;20032;-63
2022/08/20 12:03:35;;;;;;;7.20;1.92;;;22.50;98.00;;;;;;5104416;28;20052;-63
2022/08/20 12:06:01;;;;;;;7.13;2.22;;;22.50;98.80;;;;;;5101824;28;20051;-63
2022/08/20 12:08:28;;;;;;;6.18;2.20;;;22.80;98.50;;;;;;5103201;28;20044;-64
2022/08/20 12:10:59;;;;;;;6.60;2.13;;;22.90;98.10;;;;;;5104047;28;20039;-64
2022/08/20 12:13:30;;;;;;;6.13;1.80;;;23.10;97.90;;;;;;5102589;28;20135;-64
2022/08/20 12:15:56;;;;;;;6.93;2.20;;;23.30;97.70;;;;;;5102082;28;20059;-63
2022/08/20 12:18:22;;;;;;;16.17;2.30;;;22.70;96.60;;;;;;5099075;28;20045;-64
2022/08/20 12:20:48;;;;;;;5.05;1.80;;;23.40;96.90;;;;;;5104044;28;20060;-63
2022/08/20 12:23:14;;;;;;;5.50;1.70;;;;;;;;;;5103276;28;20032;-63
2022/08/20 12:25:40;;;;;;;7.15;2.38;;;23.70;96.40;;;;;;5103326;28;20052;-64
2022/08/20 12:28:06;;;;;;;7.57;2.15;;;23.70;96.60;;;;;;5103691;28;20043;-63
2022/08/20 12:30:32;;;;;;;5.43;2.03;;;23.80;96.30;;;;;;5104736;28;20051;-64
2022/08/20 12:32:58;;;;;;;6.20;1.77;;;23.80;96.60;;;;;;5103637;28;20040;-63
2022/08/20 12:35:25;;;;;;;11.13;2.92;;;24.00;96.10;;;;;;5103896;28;20044;-64
2022/08/20 12:37:51;;;;;;;5.00;2.13;;;24.20;96.30;;;;;;5102915;28;20115;-64
2022/08/20 12:40:22;;;;;;;5.40;1.80;;;24.10;96.40;;;;;;5099474;28;20079;-64
2022/08/20 12:42:48;;;;;;;4.45;1.77;;;24.00;96.60;;;;;;5103301;28;20035;-63
2022/08/20 12:45:15;;;;;;;5.28;1.90;;;23.80;96.40;;;;;;5102229;28;20062;-64
2022/08/20 12:47:43;;;;;;;5.55;1.88;;;23.90;95.80;;;;;;5103174;28;20048;-63
2022/08/20 12:50:12;;;;;;;5.05;1.77;;;23.80;95.30;;;;;;5102673;28;20055;-64